Terminal Aerodrome Forecast
Issued by NWS Sterling, VA

Current Version | Previous Version | Text Only | Print | Product List | Glossary Off
Versions: 1 2 3 4 5 6 7 8 9 10 11 12 13 14 15 16 17 18 19 20 21 22 23 24 25 26 27 28 29 30

000
FTUS41 KLWX 021122
TAFDCA
TAF
KDCA 021122Z 0212/0312 04006KT 6SM -DZ BKN008 OVC015
     FM021600 03007KT P6SM BKN015 OVC025
     FM030300 05007KT P6SM OVC008
     FM030600 05008KT P6SM -SHRA OVC008=

USA.gov is the U.S. government's official web portal to all federal, state and local government web resources and services.